Time;durP1;ratioP1;P1;durP2;ratioP2;P2;SDS_P1;SDS_P2;PMS_P1;PMS_P2;Temp;Humidity;BMP_temperature;BMP_pressure;BME280_temperature;BME280_humidity;BME280_pressure;Samples;Min_cycle;Max_cycle;Signal;HPM_P1;HPM_P2
2022/06/18 00:01:50;;;;;;;10.18;9.00;;;;;;;17.88;100.00;94767.56;5033209;28;20175;-60
2022/06/18 00:04:19;;;;;;;11.15;9.90;;;;;;;17.89;100.00;94766.63;5032928;28;20675;-63
2022/06/18 00:06:53;;;;;;;11.13;9.13;;;;;;;17.95;100.00;94770.25;5032962;28;20198;-60
2022/06/18 00:09:22;;;;;;;10.38;9.48;;;;;;;17.86;100.00;94758.41;5032865;28;20175;-59
2022/06/18 00:14:35;;;;;;;10.10;9.10;;;;;;;17.98;100.00;94762.19;5033017;28;20301;-60
2022/06/18 00:17:00;;;;;;;9.95;8.95;;;;;;;17.93;100.00;94767.88;5033082;28;20210;-63
2022/06/18 00:19:26;;;;;;;9.88;8.93;;;;;;;17.93;100.00;94762.72;5032986;28;20205;-63
2022/06/18 00:21:52;;;;;;;9.40;8.38;;;;;;;17.98;100.00;94760.44;5032655;28;20174;-60
2022/06/18 00:24:20;;;;;;;11.73;8.77;;;;;;;17.87;100.00;94760.84;5031281;28;20182;-63
2022/06/18 00:26:46;;;;;;;10.70;9.20;;;;;;;17.88;100.00;94762.44;5033137;28;20194;-63
2022/06/18 00:29:15;;;;;;;9.70;7.88;;;;;;;17.92;100.00;94768.03;5032818;28;20177;-60
2022/06/18 00:31:41;;;;;;;11.95;9.13;;;;;;;17.87;100.00;94752.31;5032497;28;20176;-61
2022/06/18 00:34:07;;;;;;;11.15;8.90;;;;;;;17.92;100.00;94758.53;5031119;28;20182;-64
2022/06/18 00:36:35;;;;;;;14.25;9.38;;;;;;;17.84;100.00;94761.16;5032674;28;20166;-61
2022/06/18 00:39:00;;;;;;;9.48;8.57;;;;;;;17.79;100.00;94748.03;5032498;28;20188;-63
2022/06/18 00:41:26;;;;;;;11.27;9.40;;;;;;;17.79;100.00;94758.31;5032525;28;20166;-62
2022/06/18 00:44:04;;;;;;;10.40;9.40;;;;;;;17.70;100.00;94754.19;5032352;28;20646;-60
2022/06/18 00:46:38;;;;;;;11.27;8.32;;;;;;;17.70;100.00;94743.91;5030528;28;20224;-63
2022/06/18 00:49:18;;;;;;;10.02;8.90;;;;;;;17.73;100.00;94748.72;5032271;28;20165;-62
2022/06/18 00:51:47;;;;;;;11.63;8.98;;;;;;;17.69;100.00;94751.78;5032856;28;20189;-63
2022/06/18 00:54:31;;;;;;;12.13;9.00;;;;;;;17.64;100.00;94744.59;5032113;28;20564;-67
2022/06/18 00:57:04;;;;;;;9.45;8.52;;;;;;;17.69;100.00;94750.03;5032353;28;20572;-64
2022/06/18 00:59:48;;;;;;;9.70;8.80;;;;;;;17.70;100.00;94749.06;5032110;28;20686;-64
2022/06/18 01:02:19;;;;;;;10.23;8.80;;;;;;;17.71;100.00;94750.66;5030688;28;20713;-64
2022/06/18 01:04:45;;;;;;;10.82;8.30;;;;;;;17.66;100.00;94745.22;5031969;28;20209;-63
2022/06/18 01:07:17;;;;;;;12.52;8.57;;;;;;;17.63;100.00;94755.84;5032612;28;20672;-63
2022/06/18 01:09:46;;;;;;;11.65;8.90;;;;;;;17.67;100.00;94746.03;5032233;28;20594;-64
2022/06/18 01:12:11;;;;;;;14.75;8.63;;;;;;;17.59;100.00;94745.09;5032007;28;20648;-65
2022/06/18 01:14:37;;;;;;;12.45;8.73;;;;;;;17.64;100.00;94744.59;5031887;28;20214;-61
2022/06/18 01:17:04;;;;;;;9.20;8.35;;;;;;;17.60;100.00;94739.00;5030496;28;20722;-62
2022/06/18 01:19:38;;;;;;;8.98;8.07;;;;;;;17.70;100.00;94743.91;5031858;28;20675;-64
2022/06/18 01:22:18;;;;;;;9.63;8.73;;;;;;;17.63;100.00;94750.72;5030474;28;20182;-64
2022/06/18 01:24:44;;;;;;;9.63;8.65;;;;;;;17.61;100.00;94756.00;5031679;28;20259;-61
2022/06/18 01:27:10;;;;;;;9.10;8.15;;;;;;;17.55;100.00;94745.63;5032046;28;20635;-63
2022/06/18 01:29:37;;;;;;;11.13;8.77;;;;;;;17.46;100.00;94751.72;5031717;28;20229;-64
2022/06/18 01:32:03;;;;;;;10.43;8.70;;;;;;;17.50;100.00;94761.53;5031633;28;20178;-63
2022/06/18 01:34:30;;;;;;;8.48;7.68;;;;;;;17.45;100.00;94747.56;5031634;28;20202;-64
2022/06/18 01:36:59;;;;;;;9.40;8.05;;;;;;;17.40;100.00;94748.06;5038841;23;20174;-62
2022/06/18 01:39:30;;;;;;;8.45;7.65;;;;;;;17.46;100.00;94746.59;5031604;28;20202;-64
2022/06/18 01:42:08;;;;;;;7.97;7.18;;;;;;;17.46;100.00;94749.16;5031966;28;20664;-62
2022/06/18 01:44:37;;;;;;;8.23;7.45;;;;;;;17.44;100.00;94751.91;5031815;28;20206;-64
2022/06/18 01:47:12;;;;;;;10.40;7.93;;;;;;;17.38;100.00;94749.22;5032061;28;20222;-63
2022/06/18 01:49:47;;;;;;;10.60;7.20;;;;;;;17.30;100.00;94744.09;5031406;28;20209;-64
2022/06/18 01:52:15;;;;;;;9.35;6.90;;;;;;;17.34;100.00;94742.81;5031983;28;20193;-62
2022/06/18 01:54:49;;;;;;;13.10;7.60;;;;;;;17.36;100.00;94746.00;5031641;28;20252;-62
2022/06/18 01:57:23;;;;;;;10.02;7.88;;;;;;;17.29;100.00;94739.94;5031955;28;20328;-66
2022/06/18 01:59:53;;;;;;;8.95;7.40;;;;;;;17.30;100.00;94742.34;5035574;28;20566;-63
2022/06/18 02:02:19;;;;;;;11.50;6.93;;;;;;;17.28;100.00;94739.16;5035182;28;20189;-60
2022/06/18 02:04:44;;;;;;;14.90;7.20;;;;;;;17.09;100.00;94713.84;5033802;28;20590;-61
2022/06/18 02:07:12;;;;;;;7.72;6.78;;;;;;;17.25;100.00;94743.81;5035570;28;20240;-64
2022/06/18 02:09:49;;;;;;;6.88;6.28;;;;;;;17.23;100.00;94731.13;5035193;28;20672;-62
2022/06/18 02:12:19;;;;;;;7.90;7.10;;;;;;;17.25;100.00;94733.53;5035548;28;20531;-64
2022/06/18 02:14:50;;;;;;;8.70;6.45;;;;;;;17.14;100.00;94724.44;5041844;23;20309;-62
2022/06/18 02:17:20;;;;;;;13.30;7.57;;;;;;;17.21;100.00;94734.84;5035046;28;20182;-60
2022/06/18 02:19:53;;;;;;;8.30;7.18;;;;;;;17.17;100.00;94728.44;5035003;28;20198;-60
2022/06/18 02:22:23;;;;;;;8.50;7.05;;;;;;;17.22;100.00;94739.81;5035101;28;20623;-64
2022/06/18 02:24:48;;;;;;;8.93;7.97;;;;;;;17.12;100.00;94725.56;5034789;28;20277;-60
2022/06/18 02:27:15;;;;;;;9.40;6.97;;;;;;;17.04;100.00;94718.72;5035109;28;20300;-66
2022/06/18 02:29:44;;;;;;;9.55;7.47;;;;;;;17.07;100.00;94733.78;5034688;28;20281;-64
2022/06/18 02:32:21;;;;;;;7.65;6.95;;;;;;;17.07;100.00;94743.25;5033498;28;20179;-63
2022/06/18 02:34:47;;;;;;;9.30;6.60;;;;;;;17.05;100.00;94740.84;5034822;28;20198;-64
2022/06/18 02:37:27;;;;;;;7.63;6.78;;;;;;;17.11;100.00;94732.47;5035109;28;20240;-63
2022/06/18 02:40:00;;;;;;;9.52;7.32;;;;;;;17.07;100.00;94738.91;5034560;28;20386;-65
2022/06/18 02:42:32;;;;;;;9.95;6.88;;;;;;;17.11;100.00;94737.59;5033402;28;20189;-64
2022/06/18 02:44:59;;;;;;;8.60;6.80;;;;;;;17.18;100.00;94742.88;5033244;28;20680;-63
2022/06/18 02:47:24;;;;;;;8.75;7.07;;;;;;;17.11;100.00;94742.75;5034510;28;20210;-63
2022/06/18 02:49:54;;;;;;;10.70;7.43;;;;;;;16.98;100.00;94737.34;5034424;28;20680;-64
2022/06/18 02:52:23;;;;;;;9.98;7.45;;;;;;;17.04;100.00;94735.88;5034281;28;20198;-60
2022/06/18 02:54:48;;;;;;;7.72;6.93;;;;;;;17.01;100.00;94726.72;5034532;28;20202;-63
2022/06/18 02:57:26;;;;;;;9.82;7.18;;;;;;;17.11;100.00;94731.69;5034341;28;20171;-63
2022/06/18 02:59:52;;;;;;;7.60;6.88;;;;;;;17.09;100.00;94742.09;5032857;28;20206;-64
2022/06/18 03:02:17;;;;;;;16.77;6.78;;;;;;;16.82;100.00;94700.66;5034339;28;20523;-60
2022/06/18 03:04:43;;;;;;;8.45;7.03;;;;;;;17.05;100.00;94740.84;5034128;28;20206;-63
2022/06/18 03:07:08;;;;;;;10.38;6.68;;;;;;;17.02;100.00;94742.94;5034288;28;20170;-63
2022/06/18 03:12:06;;;;;;;7.63;6.60;;;;;;;16.89;100.00;94730.63;5033679;28;20229;-64
2022/06/18 03:12:19;;;;;;;13.77;10.75;;;;;;;16.98;100.00;94746.81;5034189;28;20925;-62
2022/06/18 03:14:45;;;;;;;14.43;8.15;;;;;;;17.14;100.00;94742.41;5034542;28;20233;-60
2022/06/18 03:17:11;;;;;;;9.60;7.13;;;;;;;17.01;100.00;94733.66;5032886;28;20193;-60
2022/06/18 03:19:46;;;;;;;9.32;6.57;;;;;;;17.09;100.00;94733.63;5033837;28;20263;-60
2022/06/18 03:22:14;;;;;;;7.30;6.57;;;;;;;17.03;100.00;94734.28;5033967;28;20180;-62
2022/06/18 03:24:41;;;;;;;8.80;6.85;;;;;;;17.09;100.00;94733.63;5033637;28;20195;-64
2022/06/18 03:27:07;;;;;;;8.13;6.32;;;;;;;17.04;100.00;94739.25;4999547;28;20277;-63
2022/06/18 03:29:34;;;;;;;7.70;6.32;;;;;;;17.15;100.00;94744.00;5032729;28;20302;-62
2022/06/18 03:32:01;;;;;;;6.53;5.97;;;;;;;17.24;100.00;94747.34;5033715;28;20162;-64
2022/06/18 03:34:27;;;;;;;7.57;6.20;;;;;;;17.25;100.00;94754.09;5033835;28;20264;-63
2022/06/18 03:36:53;;;;;;;9.25;5.78;;;;;;;17.26;100.00;94755.69;5032452;28;20178;-63
2022/06/18 03:39:18;;;;;;;6.78;6.15;;;;;;;17.22;100.00;94765.50;5032352;28;20194;-62
2022/06/18 03:41:51;;;;;;;8.77;6.07;;;;;;;17.22;100.00;94764.69;5033692;28;20257;-64
2022/06/18 03:44:16;;;;;;;8.20;5.63;;;;;;;17.16;100.00;94773.06;5033910;28;20239;-64
2022/06/18 03:46:43;;;;;;;8.02;6.38;;;;;;;17.12;100.00;94770.06;5031686;28;20198;-62
2022/06/18 03:49:22;;;;;;;6.82;6.18;;;;;;;17.23;100.00;94774.03;5033510;28;20181;-63
2022/06/18 03:51:47;;;;;;;7.85;6.70;;;;;;;17.28;100.00;94771.75;5032529;28;20253;-63
2022/06/18 03:54:13;;;;;;;7.82;7.13;;;;;;;17.21;100.00;94763.91;5032955;28;20182;-62
2022/06/18 03:56:39;;;;;;;8.02;6.30;;;;;;;17.09;100.00;94756.75;5032266;28;20261;-63
2022/06/18 03:59:04;;;;;;;8.80;6.30;;;;;;;17.00;100.00;94752.59;5032652;28;20248;-62
2022/06/18 04:01:32;;;;;;;8.32;6.78;;;;;;;16.99;100.00;94761.28;5032246;28;20232;-62
2022/06/18 04:03:58;;;;;;;8.48;7.05;;;;;;;17.00;100.00;94755.16;5030943;28;20182;-63
2022/06/18 04:06:24;;;;;;;8.82;6.97;;;;;;;17.11;100.00;94758.16;5032303;28;20240;-62
2022/06/18 04:08:50;;;;;;;12.68;7.57;;;;;;;17.02;100.00;94758.38;5031169;28;20237;-62
2022/06/18 04:11:16;;;;;;;9.90;7.25;;;;;;;16.96;100.00;94756.47;5030774;28;20211;-62
2022/06/18 04:13:42;;;;;;;10.88;7.57;;;;;;;16.95;100.00;94754.88;5032360;28;20197;-63
2022/06/18 04:16:09;;;;;;;7.82;6.53;;;;;;;17.00;100.00;94766.25;5031929;28;20277;-63
2022/06/18 04:18:37;;;;;;;7.35;5.70;;;;;;;16.99;100.00;94769.75;5032657;28;20273;-62
2022/06/18 04:21:03;;;;;;;6.90;5.95;;;;;;;17.04;100.00;94775.22;5031506;28;20198;-63
2022/06/18 04:23:30;;;;;;;8.30;6.90;;;;;;;17.10;100.00;94776.31;5030682;28;20652;-63
2022/06/18 04:25:56;;;;;;;8.05;6.43;;;;;;;17.12;100.00;94792.34;5032024;28;20296;-63
2022/06/18 04:28:21;;;;;;;6.47;5.68;;;;;;;17.10;100.00;94782.25;5032144;28;20668;-63
2022/06/18 04:30:47;;;;;;;6.47;5.80;;;;;;;17.04;100.00;94782.13;5031718;28;20213;-62
2022/06/18 04:33:13;;;;;;;11.05;6.40;;;;;;;17.01;100.00;94767.81;5032069;28;20216;-62
2022/06/18 04:35:39;;;;;;;6.88;6.00;;;;;;;17.07;100.00;94774.88;5030254;28;20582;-63
2022/06/18 04:38:05;;;;;;;9.70;6.20;;;;;;;17.15;100.00;94789.47;5030416;28;20613;-64
2022/06/18 04:40:33;;;;;;;7.57;5.90;;;;;;;17.12;100.00;94779.50;5031570;28;20636;-62
2022/06/18 04:43:00;;;;;;;10.60;6.88;;;;;;;17.07;100.00;94772.31;5031846;28;20201;-62
2022/06/18 04:45:26;;;;;;;9.13;6.45;;;;;;;17.09;100.00;94774.72;5031624;28;20210;-62
2022/06/18 04:47:52;;;;;;;7.10;5.93;;;;;;;17.14;100.00;94778.38;5031640;28;20187;-63
2022/06/18 04:50:23;;;;;;;12.98;6.15;;;;;;;17.08;100.00;94773.91;5031358;28;20261;-61
2022/06/18 04:52:48;;;;;;;9.05;5.72;;;;;;;17.14;100.00;94778.38;5031885;28;20266;-61
2022/06/18 04:55:17;;;;;;;7.13;5.97;;;;;;;17.19;100.00;94780.47;5031731;28;20288;-62
2022/06/18 04:57:42;;;;;;;7.88;6.07;;;;;;;17.21;100.00;94783.66;5031394;28;20505;-62
2022/06/18 05:00:09;;;;;;;6.07;5.47;;;;;;;17.27;100.00;94785.56;5031253;28;20665;-62
2022/06/18 05:02:35;;;;;;;12.18;6.47;;;;;;;17.40;100.00;94793.53;5029907;28;20206;-62
2022/06/18 05:05:04;;;;;;;5.80;5.25;;;;;;;17.50;100.00;94804.44;5031254;28;20243;-62
2022/06/18 05:07:29;;;;;;;5.60;5.10;;;;;;;17.62;100.00;94810.81;5031283;28;20284;-62
2022/06/18 05:09:55;;;;;;;6.43;5.28;;;;;;;17.71;100.00;94821.84;5031127;28;20293;-62
2022/06/18 05:12:21;;;;;;;6.00;4.80;;;;;;;17.70;100.00;94805.63;5031160;28;20225;-62
2022/06/18 05:14:46;;;;;;;6.85;4.57;;;;;;;17.79;100.00;94814.09;5031425;28;20827;-63
2022/06/18 05:17:24;;;;;;;9.18;5.32;;;;;;;17.86;100.00;94810.66;5031310;28;20179;-63
2022/06/18 05:19:50;;;;;;;7.68;5.32;;;;;;;17.95;100.00;94809.66;5031462;28;20208;-61
2022/06/18 05:22:16;;;;;;;5.55;4.63;;;;;;;17.77;100.00;94791.13;5029707;28;20175;-61
2022/06/18 05:24:42;;;;;;;7.43;4.90;;;;;;;18.04;100.00;94818.13;5030899;28;20641;-63
2022/06/18 05:27:17;;;;;;;6.68;4.85;;;;;;;18.11;100.00;94824.19;5030969;28;20194;-63
2022/06/18 05:29:42;;;;;;;10.27;4.95;;;;;;;17.98;100.00;94814.44;5030888;28;20269;-62
2022/06/18 05:32:08;;;;;;;5.57;4.70;;;;;;;18.14;100.00;94813.56;5031514;28;20174;-62
2022/06/18 05:34:33;;;;;;;5.25;4.40;;;;;;;18.22;100.00;94828.94;5034902;28;20214;-62
2022/06/18 05:36:59;;;;;;;5.13;4.47;;;;;;;18.23;100.00;94833.09;5033702;28;20189;-65
2022/06/18 05:39:24;;;;;;;10.02;4.57;;;;;;;18.20;99.70;94839.38;5035298;28;20206;-63
2022/06/18 05:41:50;;;;;;;7.93;4.85;;;;;;;18.10;100.00;94817.44;5035179;28;20178;-63
2022/06/18 05:44:15;;;;;;;6.15;4.82;;;;;;;18.16;100.00;94809.03;5035424;28;20543;-63
2022/06/18 05:46:41;;;;;;;8.93;4.88;;;;;;;18.30;100.00;94831.47;5034980;28;20691;-61
2022/06/18 05:49:08;;;;;;;7.60;5.07;;;;;;;18.30;100.00;94828.88;5035115;28;20560;-61
2022/06/18 05:51:33;;;;;;;14.73;8.73;;;;;;;18.77;100.00;94774.56;5034938;28;20171;-61
2022/06/18 05:53:59;;;;;;;16.85;9.38;;;;;;;19.15;100.00;94804.44;5035380;28;20177;-61
2022/06/18 05:56:24;;;;;;;13.50;7.68;;;;;;;19.54;100.00;94828.19;5034773;28;20221;-61
2022/06/18 05:58:50;;;;;;;9.88;5.70;;;;;;;19.74;97.32;94867.13;5034426;28;20289;-61
2022/06/18 06:01:16;;;;;;;11.07;7.25;;;;;;;19.74;93.74;94893.72;5033302;28;20202;-61
2022/06/18 06:03:42;;;;;;;10.95;6.68;;;;;;;19.74;92.29;94892.91;5035144;28;20535;-62
2022/06/18 06:06:07;;;;;;;17.58;10.75;;;;;;;19.91;100.00;94797.06;5042167;22;20284;-62
2022/06/18 06:08:33;;;;;;;6.20;5.10;;;;;;;20.16;93.29;94889.66;5034434;28;20170;-65
2022/06/18 06:13:42;;;;;;;7.30;5.63;;;;;;;20.40;88.42;94884.16;5033426;28;20356;-63
2022/06/18 06:16:09;;;;;;;5.93;4.38;;;;;;;20.48;87.65;94894.38;5034673;28;20569;-62
2022/06/18 06:18:34;;;;;;;7.03;5.20;;;;;;;20.78;88.32;94894.06;5034609;28;20195;-62
2022/06/18 06:21:00;;;;;;;8.38;4.85;;;;;;;20.76;85.03;94923.66;5032733;28;20210;-62
2022/06/18 06:23:26;;;;;;;4.90;4.30;;;;;;;20.51;81.14;94972.31;5032538;28;20170;-62
2022/06/18 06:25:51;;;;;;;8.45;4.65;;;;;;;20.48;82.96;94935.72;5034288;28;20652;-61
2022/06/18 06:28:22;;;;;;;6.95;4.25;;;;;;;20.70;81.96;94953.63;5033938;28;20166;-62
2022/06/18 06:30:49;;;;;;;4.60;4.20;;;;;;;20.77;81.55;94943.34;5034181;28;20221;-61
2022/06/18 06:33:15;;;;;;;5.28;4.72;;;;;;;21.01;84.74;94888.66;5033773;28;20166;-61
2022/06/18 06:35:43;;;;;;;11.73;6.47;;;;;;;20.93;82.40;94917.25;5032470;28;20223;-62
2022/06/18 06:38:10;;;;;;;16.30;9.27;;;;;;;21.41;89.09;94833.66;5032304;28;20185;-63
2022/06/18 06:40:36;;;;;;;7.13;4.72;;;;;;;21.75;84.64;94905.31;5033972;28;20756;-63
2022/06/18 06:43:03;;;;;;;5.90;4.47;;;;;;;21.70;79.29;94983.50;5033181;28;20169;-66
2022/06/18 06:45:31;;;;;;;13.85;7.63;;;;;;;21.49;81.47;94931.03;5033885;28;20210;-62
2022/06/18 06:47:58;;;;;;;11.95;4.82;;;;;;;21.59;81.90;94940.03;5032368;28;20188;-63
2022/06/18 06:50:25;;;;;;;8.52;5.25;;;;;;;21.73;78.75;94988.28;5033662;28;20210;-61
2022/06/18 06:52:51;;;;;;;5.32;4.00;;;;;;;21.38;79.21;94952.25;5033511;28;20285;-62
2022/06/18 06:58:17;;;;;;;4.45;4.05;;;;;;;20.98;77.38;94974.38;5033300;28;20232;-62
2022/06/18 07:00:45;;;;;;;5.00;4.50;;;;;;;21.31;77.33;94985.81;5033666;28;20217;-63
2022/06/18 07:03:13;;;;;;;5.55;4.18;;;;;;;21.51;79.75;94916.91;5032010;28;20671;-63
2022/06/18 07:05:39;;;;;;;10.35;4.38;;;;;;;21.77;78.80;94949.09;5033406;28;20668;-63
2022/06/18 07:08:06;;;;;;;9.95;5.28;;;;;;;21.79;79.81;94911.69;5031966;28;20190;-65
2022/06/18 07:10:31;;;;;;;7.78;4.53;;;;;;;21.74;74.40;95025.34;5033519;28;20268;-63
2022/06/18 07:12:57;;;;;;;6.18;4.38;;;;;;;21.85;77.52;94938.63;5033188;28;20219;-65
2022/06/18 07:15:22;;;;;;;5.40;4.18;;;;;;;22.07;73.90;95005.69;5033388;28;20250;-65
2022/06/18 07:17:48;;;;;;;9.43;5.85;;;;;;;21.88;75.57;94966.72;5033044;28;20175;-64
2022/06/18 07:20:17;;;;;;;7.72;4.40;;;;;;;21.79;76.24;94945.34;5032718;28;20268;-62
2022/06/18 07:22:43;;;;;;;8.13;4.25;;;;;;;21.92;73.40;95015.34;5033222;28;20347;-64
2022/06/18 07:25:10;;;;;;;6.28;3.60;;;;;;;21.82;70.08;95069.25;5033118;28;20210;-63
2022/06/18 07:27:36;;;;;;;4.28;3.83;;;;;;;21.85;72.58;95017.09;5032881;28;20181;-62
2022/06/18 07:30:03;;;;;;;5.78;3.97;;;;;;;22.17;73.50;94979.41;5032907;28;20221;-63
2022/06/18 07:32:28;;;;;;;5.13;4.63;;;;;;;22.38;75.03;94937.88;5031484;28;20167;-64
2022/06/18 07:34:54;;;;;;;5.72;4.07;;;;;;;22.84;74.55;94975.09;5032991;28;20569;-63
2022/06/18 07:37:23;;;;;;;7.15;4.40;;;;;;;23.20;70.73;95034.41;5032753;28;20658;-62
2022/06/18 07:39:49;;;;;;;4.03;3.67;;;;;;;23.50;71.99;95003.69;5032689;28;20217;-66
2022/06/18 07:42:20;;;;;;;3.70;3.40;;;;;;;23.50;69.26;95045.22;5055522;23;20316;-62
2022/06/18 07:44:46;;;;;;;9.30;3.92;;;;;;;23.42;66.69;95097.34;5039962;23;20233;-65
2022/06/18 07:47:17;;;;;;;3.97;3.17;;;;;;;23.24;64.57;95124.63;5032448;28;20206;-66
2022/06/18 07:49:45;;;;;;;4.70;3.80;;;;;;;23.44;66.89;95046.03;5032215;28;20214;-66
2022/06/18 07:52:12;;;;;;;3.83;3.42;;;;;;;23.73;62.49;95113.16;5032253;28;20171;-64
2022/06/18 07:54:39;;;;;;;5.18;3.33;;;;;;;23.63;67.13;95008.91;5031934;28;20214;-63
2022/06/18 07:57:05;;;;;;;4.75;3.75;;;;;;;23.41;66.06;95010.09;5031808;28;20586;-63
2022/06/18 07:59:32;;;;;;;7.32;3.85;;;;;;;23.57;66.49;95014.88;5032128;28;20265;-64
2022/06/18 08:01:58;;;;;;;9.77;3.50;;;;;;;23.68;64.81;95048.03;5031934;28;20649;-64
2022/06/18 08:04:23;;;;;;;6.75;3.78;;;;;;;23.99;66.44;95006.66;5030749;28;20206;-65
2022/06/18 08:06:48;;;;;;;5.05;4.30;;;;;;;23.89;63.85;95042.63;5053425;23;20242;-67
2022/06/18 08:09:14;;;;;;;4.20;3.85;;;;;;;23.69;62.54;95062.63;5046137;23;20230;-65
2022/06/18 08:11:40;;;;;;;4.70;3.67;;;;;;;24.02;62.75;95058.19;5031855;28;20170;-63
2022/06/18 08:14:06;;;;;;;3.60;3.30;;;;;;;23.86;61.24;95098.38;5039603;23;20230;-65
2022/06/18 08:16:33;;;;;;;4.93;4.43;;;;;;;24.02;65.64;94993.22;5031717;28;20174;-66
2022/06/18 08:18:58;;;;;;;3.80;3.35;;;;;;;23.83;60.93;95095.38;5032370;28;20214;-64
2022/06/18 08:21:30;;;;;;;5.65;4.43;;;;;;;23.83;61.62;95070.22;5031757;28;20237;-64
2022/06/18 08:24:01;;;;;;;6.15;4.57;;;;;;;23.52;65.34;94997.31;5032430;28;20557;-64
2022/06/18 08:26:27;;;;;;;5.50;3.78;;;;;;;23.79;64.03;95018.88;5030409;28;20292;-64
2022/06/18 08:28:54;;;;;;;6.25;3.88;;;;;;;23.48;65.08;94993.53;5032247;28;20194;-64
2022/06/18 08:31:20;;;;;;;8.18;3.92;;;;;;;22.77;63.45;95026.13;5030333;28;20742;-67
2022/06/18 08:33:45;;;;;;;5.28;4.38;;;;;;;22.65;68.08;94905.84;5032019;28;20190;-66
2022/06/18 08:36:17;;;;;;;4.47;3.72;;;;;;;23.06;63.56;95036.19;5031322;28;20739;-66
2022/06/18 08:38:46;;;;;;;4.75;3.78;;;;;;;23.37;68.06;94925.84;5031730;28;20201;-65
2022/06/18 08:41:24;;;;;;;4.60;3.97;;;;;;;23.09;65.26;94994.25;5045308;23;20236;-65
2022/06/18 08:44:09;;;;;;;4.85;4.35;;;;;;;23.06;64.99;95006.84;5031403;28;20249;-66
2022/06/18 08:46:50;;;;;;;4.25;3.47;;;;;;;23.20;66.78;94951.38;5011716;28;20312;-65
2022/06/18 08:49:31;;;;;;;5.05;3.80;;;;;;;23.09;64.21;95020.22;5041139;22;20230;-65
2022/06/18 08:51:57;;;;;;;5.43;4.28;;;;;;;23.20;68.33;94921.03;5031444;28;20169;-65
2022/06/18 08:54:29;;;;;;;4.95;4.07;;;;;;;23.50;66.33;94965.56;5031549;28;20206;-63
2022/06/18 08:56:57;;;;;;;4.15;3.40;;;;;;;23.61;63.56;95029.06;5031015;28;20251;-65
2022/06/18 09:00:08;;;;;;;4.88;3.70;;;;;;;23.73;66.38;94973.75;5036717;23;20704;-63
2022/06/18 09:02:41;;;;;;;5.20;3.30;;;;;;;23.75;66.60;94932.78;5004651;22;20233;-64
2022/06/18 09:05:34;;;;;;;4.30;3.55;;;;;;;23.93;63.94;95021.25;5030997;28;20285;-64
2022/06/18 09:07:59;;;;;;;4.80;3.65;;;;;;;23.68;66.73;94946.75;5030733;28;20189;-64
2022/06/18 09:10:33;;;;;;;4.15;3.72;;;;;;;23.67;67.61;94929.59;5030996;28;20244;-63
2022/06/18 09:13:10;;;;;;;4.93;3.85;;;;;;;23.90;69.54;94881.38;5029692;28;20238;-63
2022/06/18 09:15:47;;;;;;;3.78;3.47;;;;;;;24.01;68.24;94931.91;5030886;28;20202;-63
2022/06/18 09:18:30;;;;;;;10.20;4.40;;;;;;;23.81;68.92;94905.19;5031306;28;20720;-61
2022/06/18 09:21:00;;;;;;;4.70;3.63;;;;;;;23.63;70.51;94866.91;5030801;28;20201;-63
2022/06/18 09:23:29;;;;;;;6.47;3.60;;;;;;;23.27;66.64;94923.66;5030841;28;20208;-62
2022/06/18 09:26:06;;;;;;;6.22;2.92;;;;;;;22.97;65.83;94969.09;5030657;28;20668;-61
2022/06/18 09:28:34;;;;;;;3.72;3.10;;;;;;;22.67;64.44;94999.78;5030910;28;20174;-60
2022/06/18 09:31:13;;;;;;;4.63;3.15;;;;;;;22.28;69.25;94875.25;5031036;28;20236;-62
2022/06/18 09:33:45;;;;;;;3.35;3.05;;;;;;;21.94;71.32;94834.69;5030995;28;20170;-62
2022/06/18 09:36:25;;;;;;;4.85;3.08;;;;;;;21.82;73.53;94812.94;5031157;28;20210;-62
2022/06/18 09:39:06;;;;;;;7.18;3.70;;;;;;;22.13;72.38;94835.75;5030728;28;20206;-61
2022/06/18 09:41:43;;;;;;;3.92;3.50;;;;;;;22.20;73.89;94802.91;5030830;28;20182;-63
2022/06/18 09:44:27;;;;;;;4.35;2.92;;;;;;;22.22;71.67;94860.50;5030767;28;20162;-61
2022/06/18 09:46:59;;;;;;;5.43;3.17;;;;;;;22.28;70.50;94888.22;5030841;28;20224;-62
2022/06/18 09:49:25;;;;;;;3.90;3.50;;;;;;;22.36;75.22;94805.13;5030942;28;20285;-66
2022/06/18 09:54:34;;;;;;;6.13;4.38;;;;;;;21.99;76.37;94784.94;5031057;28;20216;-64
2022/06/18 09:57:01;;;;;;;3.95;3.55;;;;;;;21.93;79.72;94750.25;5031135;28;20186;-65
2022/06/18 09:59:30;;;;;;;5.00;4.28;;;;;;;22.08;77.28;94801.88;5037869;23;20226;-65
2022/06/18 10:01:56;;;;;;;4.20;3.55;;;;;;;22.29;71.19;94913.09;5030462;28;20641;-65
2022/06/18 10:07:23;;;;;;;4.13;3.80;;;;;;;22.77;72.07;94875.75;5030442;28;20528;-65
2022/06/18 10:09:54;;;;;;;4.88;3.78;;;;;;;22.66;68.86;94938.56;5030474;28;20252;-66
2022/06/18 10:12:28;;;;;;;5.30;4.60;;;;;;;22.76;70.98;94879.34;5029219;28;20282;-65
2022/06/18 10:14:56;;;;;;;4.50;3.80;;;;;;;23.11;75.36;94795.13;5030516;28;20639;-66
2022/06/18 10:17:30;;;;;;;4.47;3.65;;;;;;;23.05;71.71;94873.75;5030573;28;20193;-65
2022/06/18 10:19:55;;;;;;;4.35;3.95;;;;;;;22.90;73.50;94833.47;5033429;28;20201;-65
2022/06/18 10:22:42;;;;;;;4.53;4.13;;;;;;;22.71;72.61;94858.38;5032699;28;20191;-65
2022/06/18 10:25:20;;;;;;;4.53;4.13;;;;;;;23.19;75.04;94812.28;5034280;28;20206;-66
2022/06/18 10:27:58;;;;;;;5.35;4.63;;;;;;;23.42;77.15;94778.91;5034151;28;20193;-69
2022/06/18 10:33:34;;;;;;;4.65;4.18;;;;;;;23.36;70.79;94893.91;5041824;23;20245;-66
2022/06/18 10:36:44;;;;;;;4.72;4.22;;;;;;;23.62;69.96;94900.84;5041057;23;20300;-66
2022/06/18 10:39:29;;;;;;;5.28;4.32;;;;;;;24.13;69.59;94927.69;4992202;28;20178;-65
2022/06/18 10:42:18;;;;;;;4.47;3.90;;;;;;;24.22;70.82;94890.06;4992257;28;20172;-66
2022/06/18 10:44:52;;;;;;;5.80;4.00;;;;;;;24.11;69.89;94908.91;5025510;28;20289;-67
2022/06/18 10:47:19;;;;;;;6.20;4.10;;;;;;;23.51;71.04;94876.31;5033650;28;20227;-67
2022/06/18 10:50:00;;;;;;;4.90;4.30;;;;;;;23.47;71.49;94871.72;5041108;23;20279;-67
2022/06/18 10:52:25;;;;;;;7.13;4.28;;;;;;;24.04;70.99;94888.16;5041854;23;20226;-67
2022/06/18 10:55:13;;;;;;;5.18;4.68;;;;;;;24.65;74.83;94802.59;5033343;28;20190;-68
2022/06/18 10:57:38;;;;;;;5.35;4.85;;;;;;;24.67;68.84;94922.81;5033796;28;20205;-67
2022/06/18 11:00:11;;;;;;;9.77;4.57;;;;;;;24.29;71.41;94870.03;5033380;28;20198;-68
2022/06/18 11:02:39;;;;;;;4.88;4.38;;;;;;;24.37;68.55;94924.38;5055791;23;20257;-67
2022/06/18 11:05:17;;;;;;;5.95;5.07;;;;;;;24.21;69.19;94909.25;5033541;28;20202;-67
2022/06/18 11:07:49;;;;;;;5.68;4.80;;;;;;;23.57;71.33;94854.75;5040846;23;20222;-67
2022/06/18 11:10:31;;;;;;;4.88;4.35;;;;;;;23.37;72.50;94833.22;5040570;23;20217;-68
2022/06/18 11:13:00;;;;;;;6.47;5.43;;;;;;;22.94;76.01;94764.63;5068899;22;20230;-65
2022/06/18 11:15:40;;;;;;;5.38;4.82;;;;;;;22.76;75.84;94777.44;5039933;23;20253;-67
2022/06/18 11:18:19;;;;;;;4.75;4.25;;;;;;;22.39;75.22;94796.94;5032986;28;20162;-68
2022/06/18 11:21:06;;;;;;;5.18;4.18;;;;;;;22.22;77.73;94755.06;5032987;28;20201;-68
2022/06/18 11:23:35;;;;;;;6.80;5.00;;;;;;;22.27;76.30;94795.94;5033228;28;20190;-69
2022/06/18 11:26:01;;;;;;;9.15;4.70;;;;;;;21.91;75.83;94803.22;5031464;28;20206;-68
2022/06/18 11:28:39;;;;;;;6.43;4.28;;;;;;;22.13;75.26;94807.25;5032885;28;20270;-68
2022/06/18 11:31:06;;;;;;;6.75;4.53;;;;;;;22.46;74.72;94831.44;5032541;28;20205;-68
2022/06/18 11:38:33;;;;;;;5.63;3.83;;;;;;;24.51;68.11;94987.50;5047440;23;20230;-67
2022/06/18 11:41:09;;;;;;;4.85;4.10;;;;;;;24.83;69.82;94914.53;5032511;28;20206;-68
2022/06/18 11:44:01;;;;;;;4.85;3.80;;;;;;;25.30;66.15;95017.31;5032767;28;20182;-69
2022/06/18 11:46:35;;;;;;;8.15;4.28;;;;;;;25.45;62.08;95105.56;5058765;22;20266;-68
2022/06/18 11:49:23;;;;;;;4.47;3.85;;;;;;;25.04;60.34;95136.38;5032561;28;20178;-67
2022/06/18 12:00:11;;;;;;;4.22;3.45;;;;;;;23.44;65.44;94981.13;5081992;23;20245;-65
2022/06/18 12:05:13;;;;;;;4.57;4.18;;;;;;;22.91;68.18;94916.25;5089470;22;20233;-69
2022/06/18 12:07:50;;;;;;;4.57;3.90;;;;;;;22.26;70.12;94866.88;5045725;22;20218;-66
2022/06/18 12:10:19;;;;;;;3.97;3.45;;;;;;;21.97;72.23;94828.34;5032384;28;20205;-66
2022/06/18 12:13:13;;;;;;;4.68;4.13;;;;;;;21.53;73.39;94788.13;5030914;28;20626;-64